Time;durP1;ratioP1;P1;durP2;ratioP2;P2;SDS_P1;SDS_P2;PMS_P1;PMS_P2;Temp;Humidity;BMP_temperature;BMP_pressure;BME280_temperature;BME280_humidity;BME280_pressure;Samples;Min_cycle;Max_cycle;Signal;HPM_P1;HPM_P2
2022/03/24 00:01:47;;;;;;;14.63;8.63;;;;;;;;;;5087604;28;20032;-59
2022/03/24 00:04:13;;;;;;;12.57;8.23;;;;;;;;;;5087266;28;20039;-59
2022/03/24 00:06:40;;;;;;;14.90;7.68;;;;;;;;;;5087650;28;20028;-60
2022/03/24 00:09:06;;;;;;;10.57;7.07;;;;;;;;;;5088160;28;20112;-59
2022/03/24 00:11:32;;;;;;;12.75;7.68;;;;;;;;;;5087873;28;20040;-59
2022/03/24 00:13:58;;;;;;;11.57;8.10;;;;;;;;;;5088324;28;20027;-59
2022/03/24 00:16:26;;;;;;;14.20;7.57;;;;;;;;;;5087889;28;20059;-59
2022/03/24 00:18:52;;;;;;;12.90;7.63;;;;;;;;;;5081234;28;20024;-60
2022/03/24 00:21:18;;;;;;;14.13;8.38;;;;;;;;;;5086505;28;20032;-60
2022/03/24 00:23:44;;;;;;;11.40;7.88;;;;;;;;;;5087637;28;20054;-60
2022/03/24 00:26:10;;;;;;;10.45;7.38;;;;;;;;;;5087257;28;20055;-59
2022/03/24 00:28:37;;;;;;;12.38;7.80;;;;;;;;;;5087326;28;20028;-60
2022/03/24 00:31:03;;;;;;;11.85;7.40;;;;;;;;;;5086266;28;20086;-59
2022/03/24 00:33:31;;;;;;;11.30;8.02;;;;;;;;;;5082531;28;20063;-59
2022/03/24 00:35:57;;;;;;;11.70;7.45;;;;;;;;;;5087452;28;20402;-59
2022/03/24 00:38:23;;;;;;;11.00;8.13;;;;;;;;;;5087200;28;20024;-60
2022/03/24 00:40:51;;;;;;;12.48;7.38;;;;;;;;;;5087488;28;20031;-59
2022/03/24 00:43:17;;;;;;;13.50;8.18;;;;;;;;;;5087415;28;20371;-59
2022/03/24 00:45:43;;;;;;;11.00;7.57;;;;;;;;;;5086763;28;20024;-59
2022/03/24 00:48:10;;;;;;;12.70;7.30;;;;;;;;;;5070831;28;20103;-59
2022/03/24 00:50:36;;;;;;;11.85;7.85;;;;;;;;;;5085125;28;20043;-59
2022/03/24 00:53:03;;;;;;;10.20;7.13;;;;;;;;;;5091213;28;20098;-59
2022/03/24 00:55:29;;;;;;;11.38;7.22;;;;;;;;;;5090396;28;20121;-60
2022/03/24 00:57:55;;;;;;;12.25;6.93;;;;;;;;;;5091402;28;20323;-59
2022/03/24 01:00:24;;;;;;;11.60;7.13;;;;;;;;;;5090783;28;20024;-59
2022/03/24 01:02:51;;;;;;;9.48;7.13;;;;;;;;;;5091230;28;20032;-59
2022/03/24 01:05:19;;;;;;;10.98;7.50;;;;;;;;;;5091291;28;20020;-59
2022/03/24 01:07:46;;;;;;;12.13;7.57;;;;;;;;;;5091058;28;20414;-59
2022/03/24 01:10:13;;;;;;;10.90;7.25;;;;;;;;;;5090269;28;20040;-59
2022/03/24 01:12:40;;;;;;;9.48;6.90;;;;;;;;;;5091469;28;20020;-59
2022/03/24 01:15:17;;;;;;;9.75;7.57;;;;;;;;;;5091358;28;20078;-60
2022/03/24 01:17:44;;;;;;;10.30;6.95;;;;;;;;;;5080648;28;20496;-59
2022/03/24 01:20:11;;;;;;;10.52;7.35;;;;;;;;;;5090789;28;20450;-61
2022/03/24 01:22:37;;;;;;;11.30;7.43;;;;;;;;;;5089903;28;20024;-59
2022/03/24 01:25:03;;;;;;;10.55;6.88;;;;;;;;;;5089649;28;20612;-60
2022/03/24 01:27:29;;;;;;;11.13;6.78;;;;;;;;;;5088665;28;20122;-60
2022/03/24 01:29:56;;;;;;;11.43;7.05;;;;;;;;;;5091187;28;20028;-59
2022/03/24 01:32:24;;;;;;;10.25;6.55;;;;;;;;;;5090132;28;20082;-59
2022/03/24 01:34:53;;;;;;;12.00;8.05;;;;;;;;;;5090282;28;20387;-60
2022/03/24 01:37:20;;;;;;;8.83;6.90;;;;;;;;;;5089924;28;20020;-59
2022/03/24 01:39:46;;;;;;;13.18;7.32;;;;;;;;;;5090669;28;20262;-59
2022/03/24 01:42:13;;;;;;;11.07;6.70;;;;;;;;;;5089797;28;20486;-60
2022/03/24 01:44:39;;;;;;;11.38;6.80;;;;;;;;;;5090080;28;20038;-60
2022/03/24 01:47:06;;;;;;;10.95;7.40;;;;;;;;;;5090526;28;20024;-59
2022/03/24 01:49:34;;;;;;;10.18;7.18;;;;;;;;;;5090019;28;20068;-59
2022/03/24 01:52:00;;;;;;;10.38;6.57;;;;;;;;;;5090048;28;20422;-59
2022/03/24 01:54:30;;;;;;;11.10;7.15;;;;;;;;;;5089917;28;20036;-59
2022/03/24 01:56:56;;;;;;;11.00;7.50;;;;;;;;;;5089710;28;20031;-59
2022/03/24 01:59:24;;;;;;;11.25;6.85;;;;;;;;;;5089901;28;20557;-59
2022/03/24 02:01:52;;;;;;;9.40;6.70;;;;;;;;;;5089132;28;20043;-59
2022/03/24 02:04:19;;;;;;;10.35;6.85;;;;;;;;;;5090578;28;20039;-60
2022/03/24 02:06:45;;;;;;;10.82;7.25;;;;;;;;;;5089985;28;20100;-59
2022/03/24 02:09:13;;;;;;;11.27;7.13;;;;;;;;;;5089587;28;20016;-59
2022/03/24 02:11:40;;;;;;;11.45;7.55;;;;;;;;;;5089513;28;20376;-59
2022/03/24 02:14:06;;;;;;;10.60;6.22;;;;;;;;;;5089890;28;20077;-60
2022/03/24 02:16:34;;;;;;;10.65;6.95;;;;;;;;;;5070163;28;20430;-60
2022/03/24 02:19:13;;;;;;;12.45;6.90;;;;;;;;;;5088114;28;20038;-60
2022/03/24 02:21:40;;;;;;;10.88;7.47;;;;;;;;;;5089882;28;20051;-59
2022/03/24 02:24:06;;;;;;;11.07;7.43;;;;;;;;;;5089308;28;20027;-60
2022/03/24 02:26:32;;;;;;;10.82;7.40;;;;;;;;;;5072808;28;20406;-60
2022/03/24 02:28:58;;;;;;;12.48;7.57;;;;;;;;;;5086562;28;20103;-59
2022/03/24 02:31:27;;;;;;;10.05;6.68;;;;;;;;;;5089012;28;20115;-60
2022/03/24 02:34:37;;;;;;;9.23;6.80;;;;;;;;;;5088797;28;20046;-59
2022/03/24 02:36:39;;;;;;;10.95;7.20;;;;;;;;;;5069209;28;20028;-59
2022/03/24 02:39:06;;;;;;;10.80;7.13;;;;;;;;;;5084512;28;20509;-60
2022/03/24 02:41:32;;;;;;;10.20;6.85;;;;;;;;;;5087145;28;20036;-60
2022/03/24 02:43:59;;;;;;;11.07;7.03;;;;;;;;;;5088614;28;20115;-59
2022/03/24 02:46:26;;;;;;;9.88;6.72;;;;;;;;;;5088694;28;20031;-59
2022/03/24 02:48:52;;;;;;;11.20;7.28;;;;;;;;;;5088606;28;20106;-60
2022/03/24 02:51:18;;;;;;;11.27;6.70;;;;;;;;;;5089420;28;20127;-59
2022/03/24 02:53:44;;;;;;;9.38;6.63;;;;;;;;;;5088423;28;20433;-59
2022/03/24 02:56:10;;;;;;;11.13;7.15;;;;;;;;;;5089538;28;20478;-59
2022/03/24 02:58:36;;;;;;;9.73;6.82;;;;;;;;;;5089778;28;20756;-60
2022/03/24 03:01:03;;;;;;;9.98;7.15;;;;;;;;;;5090263;28;20034;-59
2022/03/24 03:03:29;;;;;;;11.52;6.85;;;;;;;;;;5090207;28;20032;-60
2022/03/24 03:05:57;;;;;;;11.15;6.45;;;;;;;;;;5087833;28;20072;-60
2022/03/24 03:08:23;;;;;;;11.05;6.93;;;;;;;;;;5089671;28;20064;-60
2022/03/24 03:10:49;;;;;;;11.63;6.95;;;;;;;;;;5088818;28;20090;-60
2022/03/24 03:13:15;;;;;;;11.60;7.20;;;;;;;;;;5089707;28;20134;-60
2022/03/24 03:15:41;;;;;;;9.82;6.47;;;;;;;;;;5089319;28;20413;-60
2022/03/24 03:18:07;;;;;;;10.10;6.85;;;;;;;;;;5089759;28;20497;-60
2022/03/24 03:20:33;;;;;;;12.38;7.10;;;;;;;;;;5088892;28;20054;-60
2022/03/24 03:22:59;;;;;;;11.20;7.20;;;;;;;;;;5089311;28;20039;-60
2022/03/24 03:25:26;;;;;;;11.00;7.32;;;;;;;;;;5088489;28;20390;-60
2022/03/24 03:27:52;;;;;;;12.35;7.72;;;;;;;;;;5089441;28;20703;-60
2022/03/24 03:30:18;;;;;;;11.35;7.13;;;;;;;;;;5088547;28;20569;-60
2022/03/24 03:32:44;;;;;;;11.70;7.40;;;;;;;;;;5088867;28;20509;-60
2022/03/24 03:35:10;;;;;;;10.23;7.20;;;;;;;;;;5089063;28;20024;-60
2022/03/24 03:37:38;;;;;;;11.02;7.65;;;;;;;;;;5089351;28;20093;-60
2022/03/24 03:40:04;;;;;;;9.65;6.85;;;;;;;;;;5088406;28;20032;-60
2022/03/24 03:42:30;;;;;;;9.95;7.18;;;;;;;;;;5089308;28;20111;-61
2022/03/24 03:44:56;;;;;;;9.27;6.68;;;;;;;;;;5088690;28;20815;-60
2022/03/24 03:47:23;;;;;;;10.23;7.40;;;;;;;;;;5086168;28;20052;-60
2022/03/24 03:49:48;;;;;;;13.35;7.43;;;;;;;;;;5088749;28;20110;-61
2022/03/24 03:52:15;;;;;;;11.02;7.10;;;;;;;;;;5088460;28;20440;-61
2022/03/24 03:54:43;;;;;;;14.40;8.13;;;;;;;;;;5087898;28;20077;-61
2022/03/24 03:57:09;;;;;;;13.38;7.75;;;;;;;;;;5088833;28;20027;-61
2022/03/24 03:59:35;;;;;;;11.55;7.30;;;;;;;;;;5089131;28;20470;-60
2022/03/24 04:02:01;;;;;;;10.85;7.35;;;;;;;;;;5088700;28;20027;-61
2022/03/24 04:04:28;;;;;;;10.38;7.38;;;;;;;;;;5088858;28;20028;-60
2022/03/24 04:06:54;;;;;;;10.15;7.00;;;;;;;;;;5088476;28;20024;-60
2022/03/24 04:09:20;;;;;;;10.48;7.32;;;;;;;;;;5088476;28;20663;-60
2022/03/24 04:11:46;;;;;;;11.68;7.15;;;;;;;;;;5088200;28;20043;-60
2022/03/24 04:14:13;;;;;;;10.35;7.38;;;;;;;;;;5088236;28;20032;-60
2022/03/24 04:16:39;;;;;;;9.88;7.50;;;;;;;;;;5088585;28;20024;-60
2022/03/24 04:19:07;;;;;;;10.93;7.20;;;;;;;;;;5088766;28;20394;-60
2022/03/24 04:21:33;;;;;;;10.63;7.30;;;;;;;;;;5088728;28;20028;-60
2022/03/24 04:23:59;;;;;;;11.85;7.72;;;;;;;;;;5084552;28;20032;-60
2022/03/24 04:26:25;;;;;;;9.52;7.00;;;;;;;;;;5089191;28;20139;-60
2022/03/24 04:28:51;;;;;;;10.98;7.38;;;;;;;;;;5092858;28;20453;-60
2022/03/24 04:31:17;;;;;;;11.02;7.40;;;;;;;;;;5092419;28;20069;-59
2022/03/24 04:33:43;;;;;;;11.93;7.97;;;;;;;;;;5092485;28;20016;-59
2022/03/24 04:36:10;;;;;;;12.38;7.55;;;;;;;;;;5092782;28;20066;-60
2022/03/24 04:38:37;;;;;;;11.75;7.85;;;;;;;;;;5091417;28;20112;-61
2022/03/24 04:41:04;;;;;;;12.95;8.15;;;;;;;;;;5092621;28;20114;-60
2022/03/24 04:43:31;;;;;;;9.55;7.03;;;;;;;;;;5091749;28;20024;-61
2022/03/24 04:45:57;;;;;;;12.10;7.55;;;;;;;;;;5092660;28;20028;-60
2022/03/24 04:48:23;;;;;;;12.80;7.68;;;;;;;;;;5092016;28;20085;-60
2022/03/24 04:50:49;;;;;;;13.10;8.45;;;;;;;;;;5091911;28;20117;-60
2022/03/24 04:53:15;;;;;;;10.65;7.65;;;;;;;;;;5091748;28;20547;-60
2022/03/24 04:55:44;;;;;;;11.68;7.47;;;;;;;;;;5092320;28;20032;-60
2022/03/24 04:58:11;;;;;;;10.00;7.47;;;;;;;;;;5091960;28;20466;-60
2022/03/24 05:00:37;;;;;;;11.18;7.68;;;;;;;;;;5092779;28;20024;-61
2022/03/24 05:03:04;;;;;;;12.65;7.90;;;;;;;;;;5091775;28;20020;-60
2022/03/24 05:05:30;;;;;;;11.65;7.75;;;;;;;;;;5091857;28;20107;-60
2022/03/24 05:07:56;;;;;;;13.48;8.02;;;;;;;;;;5087853;28;20120;-60
2022/03/24 05:10:22;;;;;;;11.68;7.40;;;;;;;;;;5091408;28;20101;-60
2022/03/24 05:12:48;;;;;;;13.35;7.80;;;;;;;;;;5082266;28;20051;-60
2022/03/24 05:15:14;;;;;;;10.80;7.40;;;;;;;;;;5082883;28;20450;-61
2022/03/24 05:17:41;;;;;;;14.55;7.95;;;;;;;;;;5072567;28;20063;-60
2022/03/24 05:20:07;;;;;;;21.20;13.15;;;;;;;;;;5091886;28;20111;-61
2022/03/24 05:22:34;;;;;;;26.77;16.17;;;;;;;;;;5079869;28;20058;-60
2022/03/24 05:25:00;;;;;;;22.48;15.55;;;;;;;;;;5091662;28;20504;-60
2022/03/24 05:27:27;;;;;;;34.08;21.13;;;;;;;;;;5080368;28;20043;-60
2022/03/24 05:29:53;;;;;;;33.88;23.48;;;;;;;;;;5086533;28;20032;-61
2022/03/24 05:32:19;;;;;;;42.47;25.08;;;;;;;;;;5083179;28;20449;-60
2022/03/24 05:34:46;;;;;;;36.63;24.42;;;;;;;;;;5086260;28;20031;-60
2022/03/24 05:37:14;;;;;;;39.28;24.10;;;;;;;;;;5087857;28;20478;-60
2022/03/24 05:39:41;;;;;;;39.50;23.45;;;;;;;;;;5091722;28;20024;-60
2022/03/24 05:42:07;;;;;;;38.17;23.85;;;;;;;;;;5091571;28;20032;-60
2022/03/24 05:44:33;;;;;;;33.08;22.27;;;;;;;;;;5089804;28;20482;-60
2022/03/24 05:46:59;;;;;;;32.17;22.00;;;;;;;;;;5080291;28;20108;-60
2022/03/24 05:49:26;;;;;;;30.63;20.70;;;;;;;;;;5083739;28;20370;-61
2022/03/24 05:51:52;;;;;;;30.25;21.73;;;;;;;;;;5081551;28;20035;-60
2022/03/24 05:54:18;;;;;;;29.80;21.60;;;;;;;;;;5085197;28;20073;-62
2022/03/24 05:56:45;;;;;;;29.38;22.17;;;;;;;;;;5081762;28;20031;-62
2022/03/24 05:59:12;;;;;;;32.63;22.02;;;;;;;;;;5080849;28;20402;-61
2022/03/24 06:01:42;;;;;;;28.13;21.00;;;;;;;;;;5084153;28;20081;-61
2022/03/24 06:04:08;;;;;;;31.55;21.27;;;;;;;;;;5080758;28;20191;-60
2022/03/24 06:06:35;;;;;;;31.52;22.33;;;;;;;;;;5082067;28;20115;-62
2022/03/24 06:09:03;;;;;;;31.85;22.70;;;;;;;;;;5080682;28;20103;-61
2022/03/24 06:11:29;;;;;;;28.45;21.98;;;;;;;;;;5086550;28;20123;-61
2022/03/24 06:13:55;;;;;;;33.22;22.10;;;;;;;;;;5084411;28;20027;-60
2022/03/24 06:16:22;;;;;;;35.15;21.42;;;;;;;;;;5084819;28;20093;-61
2022/03/24 06:18:48;;;;;;;35.03;22.65;;;;;;;;;;5081520;28;20016;-60
2022/03/24 06:21:15;;;;;;;34.35;21.60;;;;;;;;;;5083950;28;20111;-61
2022/03/24 06:23:41;;;;;;;29.00;20.50;;;;;;;;;;5090259;28;20520;-61
2022/03/24 06:26:08;;;;;;;26.00;19.58;;;;;;;;;;5090683;28;20119;-61
2022/03/24 06:28:35;;;;;;;38.67;19.98;;;;;;;;;;5086425;28;20081;-59
2022/03/24 06:31:01;;;;;;;35.20;20.73;;;;;;;;;;5083660;28;20049;-60
2022/03/24 06:33:27;;;;;;;33.47;20.70;;;;;;;;;;5079305;28;20493;-61
2022/03/24 06:35:53;;;;;;;35.70;21.35;;;;;;;;;;5083824;28;20031;-61
2022/03/24 06:38:20;;;;;;;31.73;19.27;;;;;;;;;;5083321;28;20028;-60
2022/03/24 06:40:46;;;;;;;31.83;18.80;;;;;;;;;;5081609;28;20027;-60
2022/03/24 06:43:13;;;;;;;33.08;19.00;;;;;;;;;;5079398;28;20029;-60
2022/03/24 06:45:39;;;;;;;38.00;18.80;;;;;;;;;;5080344;28;20039;-61
2022/03/24 06:48:09;;;;;;;30.95;18.60;;;;;;;;;;5084672;28;20038;-61
2022/03/24 06:50:39;;;;;;;34.67;18.73;;;;;;;;;;5078075;28;20024;-61
2022/03/24 06:53:05;;;;;;;36.00;18.55;;;;;;;;;;5083782;28;20023;-60
2022/03/24 06:55:31;;;;;;;34.40;19.42;;;;;;;;;;5077836;28;20814;-60
2022/03/24 06:57:57;;;;;;;30.88;18.27;;;;;;;;;;5080811;28;20089;-60
2022/03/24 07:00:23;;;;;;;31.42;17.45;;;;;;;;;;5081085;28;20603;-61
2022/03/24 07:02:50;;;;;;;28.92;17.15;;;;;;;;;;5083292;28;20020;-61
2022/03/24 07:05:16;;;;;;;33.35;17.35;;;;;;;;;;5078852;28;20039;-61
2022/03/24 07:07:46;;;;;;;28.73;17.15;;;;;;;;;;5089725;28;20178;-60
2022/03/24 07:10:12;;;;;;;28.30;17.58;;;;;;;;;;5089679;28;20043;-60
2022/03/24 07:12:38;;;;;;;29.83;17.55;;;;;;;;;;5084062;28;20036;-60
2022/03/24 07:15:08;;;;;;;26.33;16.38;;;;;;;;;;5079985;28;20494;-61
2022/03/24 07:17:35;;;;;;;31.37;17.50;;;;;;;;;;5083732;28;20466;-61
2022/03/24 07:20:03;;;;;;;29.38;17.88;;;;;;;;;;5076592;28;20105;-61
2022/03/24 07:22:32;;;;;;;28.92;16.52;;;;;;;;;;5082401;28;20047;-62
2022/03/24 07:24:59;;;;;;;31.00;16.20;;;;;;;;;;5082219;28;20103;-62
2022/03/24 07:27:25;;;;;;;25.60;17.02;;;;;;;;;;5077613;28;20055;-60
2022/03/24 07:29:51;;;;;;;30.23;17.20;;;;;;;;;;5081286;28;20110;-60
2022/03/24 07:32:17;;;;;;;29.58;16.15;;;;;;;;;;5083127;28;20154;-60
2022/03/24 07:34:43;;;;;;;36.00;16.23;;;;;;;;;;5089391;28;20103;-61
2022/03/24 07:37:09;;;;;;;41.88;16.25;;;;;;;;;;5089621;28;20056;-60
2022/03/24 07:39:35;;;;;;;49.13;16.63;;;;;;;;;;5089269;28;20032;-61
2022/03/24 07:42:01;;;;;;;54.10;16.52;;;;;;;;;;5076380;28;20066;-60
2022/03/24 07:44:27;;;;;;;44.97;15.38;;;;;;;;;;5080819;28;20085;-60
2022/03/24 07:46:53;;;;;;;33.10;15.00;;;;;;;;;;5070811;28;20113;-61
2022/03/24 07:49:19;;;;;;;39.90;14.38;;;;;;;;;;5074111;28;20035;-61
2022/03/24 07:51:45;;;;;;;30.17;14.77;;;;;;;;;;5072395;28;20503;-61
2022/03/24 07:54:12;;;;;;;34.10;14.82;;;;;;;;;;5071041;28;20149;-60
2022/03/24 07:56:38;;;;;;;37.33;14.75;;;;;;;;;;5070105;28;20040;-61
2022/03/24 07:59:05;;;;;;;38.38;14.18;;;;;;;;;;5071308;28;20477;-60
2022/03/24 08:01:32;;;;;;;34.55;17.00;;;;;;;;;;5070395;28;20174;-60
2022/03/24 08:04:00;;;;;;;36.20;16.92;;;;;;;;;;5071060;28;20123;-59
2022/03/24 08:06:27;;;;;;;35.97;15.38;;;;;;;;;;5072115;28;20116;-62
2022/03/24 08:08:54;;;;;;;35.20;15.18;;;;;;;;;;5076609;28;20036;-60
2022/03/24 08:11:21;;;;;;;37.65;15.13;;;;;;;;;;5073768;28;20093;-61
2022/03/24 08:13:50;;;;;;;31.27;15.30;;;;;;;;;;5072687;28;20040;-59
2022/03/24 08:16:16;;;;;;;33.03;13.73;;;;;;;;;;5070502;28;20111;-58
2022/03/24 08:18:42;;;;;;;27.58;13.93;;;;;;;;;;5071284;28;20107;-60
2022/03/24 08:21:08;;;;;;;31.10;13.50;;;;;;;;;;5073159;28;20071;-61
2022/03/24 08:23:34;;;;;;;34.63;14.90;;;;;;;;;;5073981;28;20565;-59
2022/03/24 08:26:00;;;;;;;30.45;12.68;;;;;;;;;;5071777;28;20119;-68
2022/03/24 08:28:26;;;;;;;29.73;13.05;;;;;;;;;;5074185;28;20426;-60
2022/03/24 08:30:53;;;;;;;28.83;14.18;;;;;;;;;;5074184;28;20174;-63
2022/03/24 08:33:19;;;;;;;30.42;15.25;;;;;;;;;;5071127;28;20490;-57
2022/03/24 08:35:45;;;;;;;23.08;13.95;;;;;;;;;;5072240;28;20033;-59
2022/03/24 08:38:11;;;;;;;23.92;13.43;;;;;;;;;;5073069;28;20466;-61
2022/03/24 08:40:38;;;;;;;29.40;13.85;;;;;;;;;;5072809;28;20108;-59
2022/03/24 08:43:04;;;;;;;29.55;12.88;;;;;;;;;;5072397;28;20028;-59
2022/03/24 08:45:30;;;;;;;29.65;13.35;;;;;;;;;;5073472;28;20124;-58
2022/03/24 08:47:57;;;;;;;21.65;12.30;;;;;;;;;;5075163;28;20119;-56
2022/03/24 08:50:23;;;;;;;24.88;12.50;;;;;;;;;;5076052;28;20075;-59
2022/03/24 08:52:50;;;;;;;19.98;12.65;;;;;;;;;;5072712;28;20028;-58
2022/03/24 08:55:16;;;;;;;21.38;11.73;;;;;;;;;;5072036;28;20020;-59
2022/03/24 08:57:43;;;;;;;23.15;12.15;;;;;;;;;;5069248;28;20029;-58
2022/03/24 09:00:13;;;;;;;20.95;11.45;;;;;;;;;;5071262;28;20111;-59
2022/03/24 09:02:43;;;;;;;17.52;11.63;;;;;;;;;;5071950;28;20074;-60
2022/03/24 09:05:09;;;;;;;21.70;10.82;;;;;;;;;;5072049;28;20031;-58
2022/03/24 09:07:36;;;;;;;21.38;11.85;;;;;;;;;;5071960;28;20032;-56
2022/03/24 09:10:05;;;;;;;24.38;12.55;;;;;;;;;;5070140;28;20391;-57
2022/03/24 09:12:31;;;;;;;21.83;11.93;;;;;;;;;;5074137;28;20020;-59
2022/03/24 09:14:57;;;;;;;19.17;12.88;;;;;;;;;;5074460;28;20032;-58
2022/03/24 09:17:23;;;;;;;26.02;12.52;;;;;;;;;;5074499;28;20027;-59
2022/03/24 09:19:49;;;;;;;20.92;13.48;;;;;;;;;;5077398;28;20082;-59
2022/03/24 09:22:15;;;;;;;20.42;12.18;;;;;;;;;;5079548;28;20422;-56
2022/03/24 09:24:41;;;;;;;18.55;12.43;;;;;;;;;;5073083;28;20028;-59
2022/03/24 09:27:07;;;;;;;24.58;13.52;;;;;;;;;;5077692;28;20056;-59
2022/03/24 09:29:35;;;;;;;19.25;12.95;;;;;;;;;;5073980;28;20642;-66
2022/03/24 09:32:01;;;;;;;28.58;18.48;;;;;;;;;;5078682;28;21081;-63
2022/03/24 09:34:27;;;;;;;28.10;19.10;;;;;;;;;;5078346;28;20035;-62
2022/03/24 09:36:53;;;;;;;30.75;21.05;;;;;;;;;;5075048;28;20090;-58
2022/03/24 09:39:19;;;;;;;27.90;20.13;;;;;;;;;;5075725;28;20039;-58
2022/03/24 09:41:47;;;;;;;29.48;19.60;;;;;;;;;;5075517;28;20040;-59
2022/03/24 09:44:14;;;;;;;25.13;19.23;;;;;;;;;;5074111;28;20101;-58
2022/03/24 09:46:43;;;;;;;24.55;17.80;;;;;;;;;;5073271;28;20542;-58
2022/03/24 09:49:10;;;;;;;26.88;19.33;;;;;;;;;;5075742;28;20508;-59
2022/03/24 09:51:39;;;;;;;27.08;18.77;;;;;;;;;;5073330;28;20059;-59
2022/03/24 09:54:06;;;;;;;29.10;18.00;;;;;;;;;;5078286;28;20081;-58
2022/03/24 09:56:32;;;;;;;24.00;18.60;;;;;;;;;;5075319;28;20039;-59
2022/03/24 09:58:58;;;;;;;28.40;19.23;;;;;;;;;;5075124;28;20028;-58
2022/03/24 10:01:24;;;;;;;25.42;18.83;;;;;;;;;;5072836;28;20588;-59
2022/03/24 10:04:05;;;;;;;27.15;18.80;;;;;;;;;;5075083;28;20043;-58
2022/03/24 10:06:31;;;;;;;22.42;16.90;;;;;;;;;;5072660;28;20199;-58
2022/03/24 10:08:57;;;;;;;21.15;16.55;;;;;;;;;;5068546;28;20493;-57
2022/03/24 10:11:26;;;;;;;23.17;16.30;;;;;;;;;;5068982;28;20056;-58
2022/03/24 10:13:54;;;;;;;20.90;15.98;;;;;;;;;;5072386;28;20028;-57
2022/03/24 10:16:43;;;;;;;23.98;15.95;;;;;;;;;;5071428;28;20060;-58
2022/03/24 10:19:10;;;;;;;28.02;17.20;;;;;;;;;;5078174;28;20103;-58
2022/03/24 10:21:38;;;;;;;21.35;15.88;;;;;;;;;;5077139;28;20042;-58
2022/03/24 10:24:08;;;;;;;21.65;16.20;;;;;;;;;;5071381;28;20055;-59
2022/03/24 10:26:41;;;;;;;22.35;15.35;;;;;;;;;;5073485;28;20071;-58
2022/03/24 10:29:08;;;;;;;23.23;16.27;;;;;;;;;;5077556;28;20020;-58
2022/03/24 10:31:35;;;;;;;19.23;15.38;;;;;;;;;;5075612;28;20367;-58
2022/03/24 10:34:03;;;;;;;22.98;16.90;;;;;;;;;;5074099;28;20147;-58
2022/03/24 10:36:29;;;;;;;22.15;16.60;;;;;;;;;;5072136;28;20024;-58
2022/03/24 10:38:58;;;;;;;23.65;16.63;;;;;;;;;;5073760;28;20029;-66
2022/03/24 10:41:28;;;;;;;20.33;15.90;;;;;;;;;;5075171;28;20020;-66
2022/03/24 10:43:57;;;;;;;23.83;17.33;;;;;;;;;;5074215;28;20510;-59
2022/03/24 10:46:31;;;;;;;22.07;16.73;;;;;;;;;;5072628;28;20035;-59
2022/03/24 10:48:57;;;;;;;23.02;16.58;;;;;;;;;;5072479;28;20148;-59
2022/03/24 10:51:24;;;;;;;23.77;16.23;;;;;;;;;;5074507;28;20039;-60
2022/03/24 10:53:51;;;;;;;19.17;15.07;;;;;;;;;;5074888;28;20020;-59
2022/03/24 10:56:22;;;;;;;21.00;16.15;;;;;;;;;;5074499;28;20016;-58
2022/03/24 10:58:50;;;;;;;22.25;15.60;;;;;;;;;;5073469;28;20028;-58
2022/03/24 11:01:17;;;;;;;22.55;15.93;;;;;;;;;;5075293;28;21379;-58
2022/03/24 11:03:44;;;;;;;23.20;15.23;;;;;;;;;;5071541;28;20123;-62
2022/03/24 11:06:10;;;;;;;20.42;14.45;;;;;;;;;;5073155;28;20095;-59
2022/03/24 11:08:36;;;;;;;29.05;22.55;;;;;;;;;;5068062;28;20049;-58
2022/03/24 11:11:06;;;;;;;30.13;23.17;;;;;;;;;;5074155;28;20043;-58
2022/03/24 11:13:49;;;;;;;30.48;21.45;;;;;;;;;;5072113;28;20375;-58
2022/03/24 11:16:19;;;;;;;25.95;20.48;;;;;;;;;;5072783;28;20028;-58
2022/03/24 11:18:47;;;;;;;32.20;20.92;;;;;;;;;;5071859;28;20089;-58
2022/03/24 11:21:16;;;;;;;23.90;18.73;;;;;;;;;;5073993;28;20033;-58
2022/03/24 11:23:42;;;;;;;27.95;19.70;;;;;;;;;;5071161;28;20098;-58
2022/03/24 11:26:09;;;;;;;27.23;18.48;;;;;;;;;;5068727;28;20052;-58
2022/03/24 11:28:36;;;;;;;26.48;18.70;;;;;;;;;;5071492;28;20035;-58
2022/03/24 11:31:04;;;;;;;24.50;17.88;;;;;;;;;;5072785;28;20177;-58
2022/03/24 11:33:36;;;;;;;25.00;18.40;;;;;;;;;;5073871;28;20037;-58
2022/03/24 11:36:03;;;;;;;23.80;17.50;;;;;;;;;;5071384;28;20025;-58
2022/03/24 11:38:29;;;;;;;23.38;17.77;;;;;;;;;;5072637;28;20249;-58
2022/03/24 11:41:00;;;;;;;47.38;31.58;;;;;;;;;;5081629;28;20051;-58
2022/03/24 11:43:26;;;;;;;61.50;42.30;;;;;;;;;;5079588;28;20028;-59
2022/03/24 11:45:58;;;;;;;65.45;44.70;;;;;;;;;;5086944;28;20139;-58
2022/03/24 11:48:39;;;;;;;63.45;43.47;;;;;;;;;;5086578;28;20055;-58
2022/03/24 11:51:07;;;;;;;56.25;39.20;;;;;;;;;;5082836;28;20032;-59
2022/03/24 11:53:37;;;;;;;60.72;39.40;;;;;;;;;;5085290;28;20022;-58
2022/03/24 11:56:03;;;;;;;60.08;39.40;;;;;;;;;;5087363;28;20583;-59
2022/03/24 11:58:29;;;;;;;57.72;38.20;;;;;;;;;;5087724;28;20052;-59
2022/03/24 12:00:55;;;;;;;57.03;37.78;;;;;;;;;;5088105;28;20111;-59
2022/03/24 12:03:41;;;;;;;54.08;36.63;;;;;;;;;;5087615;28;20750;-59
2022/03/24 12:06:08;;;;;;;55.05;37.50;;;;;;;;;;5087849;28;20478;-58
2022/03/24 12:08:47;;;;;;;62.25;36.97;;;;;;;;;;5087346;28;20085;-59
2022/03/24 12:11:45;;;;;;;54.92;36.25;;;;;;;;;;5087761;28;20108;-58
2022/03/24 12:14:13;;;;;;;54.50;34.88;;;;;;;;;;5064581;28;20043;-59
2022/03/24 12:16:41;;;;;;;59.25;34.92;;;;;;;;;;5087682;28;20067;-59
2022/03/24 12:19:08;;;;;;;55.40;34.38;;;;;;;;;;5087365;28;20020;-59
2022/03/24 12:21:35;;;;;;;55.38;33.38;;;;;;;;;;5087951;28;20028;-59
2022/03/24 12:24:17;;;;;;;49.35;32.38;;;;;;;;;;5086432;28;20035;-59
2022/03/24 12:26:51;;;;;;;48.53;32.28;;;;;;;;;;5067771;28;20065;-59
2022/03/24 12:29:18;;;;;;;50.42;32.63;;;;;;;;;;5086837;28;20100;-58
2022/03/24 12:32:05;;;;;;;50.28;32.83;;;;;;;;;;5087305;28;20524;-58
2022/03/24 12:34:44;;;;;;;50.60;31.02;;;;;;;;;;5085705;28;20027;-58
2022/03/24 12:37:31;;;;;;;50.22;31.35;;;;;;;;;;5087061;28;20103;-58
2022/03/24 12:40:07;;;;;;;48.35;31.05;;;;;;;;;;5083766;28;20016;-59
2022/03/24 12:42:40;;;;;;;32.00;19.02;;;;;;;;;;5069152;28;20036;-59
2022/03/24 12:45:07;;;;;;;31.77;19.70;;;;;;;;;;5081948;28;20085;-58
2022/03/24 12:47:42;;;;;;;32.40;19.35;;;;;;;;;;5074950;28;20039;-58
2022/03/24 12:50:17;;;;;;;28.40;18.45;;;;;;;;;;5089389;28;20054;-59
2022/03/24 12:52:49;;;;;;;23.75;17.20;;;;;;;;;;5091800;28;20115;-58
2022/03/24 12:55:35;;;;;;;27.20;16.63;;;;;;;;;;5091368;28;20031;-58
2022/03/24 12:58:01;;;;;;;30.33;16.75;;;;;;;;;;5091985;28;20042;-58
2022/03/24 13:00:29;;;;;;;23.73;14.90;;;;;;;;;;5089931;28;20579;-60
2022/03/24 13:02:56;;;;;;;27.17;14.15;;;;;;;;;;5075955;28;20039;-58
2022/03/24 13:05:26;;;;;;;24.30;15.10;;;;;;;;;;5083342;28;20162;-58
2022/03/24 13:07:52;;;;;;;;;;;;;;;;;;5075746;28;20104;-58
2022/03/24 13:10:19;;;;;;;25.23;14.30;;;;;;;;;;5087206;28;20373;-59
2022/03/24 13:12:47;;;;;;;24.05;14.35;;;;;;;;;;5089759;28;20032;-59
2022/03/24 13:15:21;;;;;;;27.17;14.02;;;;;;;;;;5089694;28;20097;-58
2022/03/24 13:17:50;;;;;;;22.52;14.10;;;;;;;;;;5076766;28;20033;-58
2022/03/24 13:20:17;;;;;;;23.15;13.55;;;;;;;;;;5081093;28;20020;-58
2022/03/24 13:22:47;;;;;;;20.13;12.95;;;;;;;;;;5082081;28;20029;-59
2022/03/24 13:25:13;;;;;;;18.33;12.27;;;;;;;;;;5087296;28;20055;-58
2022/03/24 13:27:41;;;;;;;21.83;12.50;;;;;;;;;;5089416;28;20052;-59
2022/03/24 13:30:09;;;;;;;19.48;12.27;;;;;;;;;;5074357;28;20031;-58
2022/03/24 13:32:35;;;;;;;21.85;12.38;;;;;;;;;;5080519;28;20021;-58
2022/03/24 13:35:02;;;;;;;19.98;12.30;;;;;;;;;;5076779;28;20505;-58
2022/03/24 13:37:33;;;;;;;20.45;10.75;;;;;;;;;;5082281;28;20482;-58
2022/03/24 13:40:00;;;;;;;19.40;11.10;;;;;;;;;;5075210;28;20024;-64
2022/03/24 13:42:27;;;;;;;21.63;10.45;;;;;;;;;;5089609;28;20115;-64
2022/03/24 13:44:54;;;;;;;19.75;10.63;;;;;;;;;;5085374;28;20390;-59
2022/03/24 13:47:23;;;;;;;17.58;10.10;;;;;;;;;;5085041;28;20378;-58
2022/03/24 13:49:53;;;;;;;27.70;10.98;;;;;;;;;;5078655;28;20090;-59
2022/03/24 13:52:35;;;;;;;20.13;10.20;;;;;;;;;;5086939;28;20074;-58
2022/03/24 13:55:01;;;;;;;17.38;7.78;;;;;;;;;;5080584;28;20122;-59
2022/03/24 13:57:27;;;;;;;19.92;8.15;;;;;;;;;;5090003;28;20498;-59
2022/03/24 13:59:54;;;;;;;20.10;7.57;;;;;;;;;;5090295;28;20032;-59
2022/03/24 14:02:24;;;;;;;21.33;7.45;;;;;;;;;;5090370;28;20055;-59
2022/03/24 14:05:07;;;;;;;22.98;8.55;;;;;;;;;;5090191;28;20067;-58
2022/03/24 14:07:33;;;;;;;21.48;7.82;;;;;;;;;;5085678;28;20127;-58
2022/03/24 14:09:59;;;;;;;22.92;7.55;;;;;;;;;;5085819;28;20498;-58
2022/03/24 14:12:27;;;;;;;20.15;6.63;;;;;;;;;;5086842;28;20040;-58
2022/03/24 14:14:53;;;;;;;16.23;6.35;;;;;;;;;;5089947;28;20024;-58
2022/03/24 14:17:25;;;;;;;14.77;6.65;;;;;;;;;;5089427;28;20042;-58
2022/03/24 14:19:57;;;;;;;20.25;6.68;;;;;;;;;;5089624;28;20036;-58
2022/03/24 14:22:26;;;;;;;17.75;6.75;;;;;;;;;;5089440;28;20106;-58
2022/03/24 14:24:52;;;;;;;17.17;7.03;;;;;;;;;;5089960;28;20028;-58
2022/03/24 14:27:24;;;;;;;19.60;6.22;;;;;;;;;;5088760;28;20059;-58